LYTV/TIV METAR and TAF weather

Enter ICAO airport designator
Station Type Date Time Source
LYTV METAR 2021/10/20 06:30 UTC NOAA

LYTV 200630Z VRB01KT 9999 FEW060 10/10 Q1027 NOSIG


Station Type Date Time Source
LYTV Decoded METAR 2021/10/20 06:30 UTC NOAA

Tivat, Serbia and Montenegro (LYTV) 42-24N 018-44E 5M
Oct 20, 2021 - 02:30 AM EDT / 2021.10.20 0630 UTC
Wind: Variable at 1 MPH (1 KT):0
Visibility: greater than 7 mile(s):0
Sky conditions: mostly clear
Temperature: 50 F (10 C)
Dew Point: 50 F (10 C)
Relative Humidity: 100%
Pressure (altimeter): 30.33 in. Hg (1027 hPa)
ob: LYTV 200630Z VRB01KT 9999 FEW060 10/10 Q1027 NOSIG
cycle: 6

Station Type Date Time Source
LYTV TAF 2021/10/20 06:25 UTC NOAA

TAF LYTV 200500Z 2006/2106 22007KT CAVOK TX22/2013Z TN08/2104Z PROB30
TEMPO 2006/2007 3000 BR

Example: see airport list